sensor_id;sensor_type;location;lat;lon;timestamp;P1;durP1;ratioP1;P2;durP2;ratioP2
61150;SDS011;47029;50.994;2.876;2023-02-01T00:01:50;15.98;;;5.03;;
61150;SDS011;47029;50.994;2.876;2023-02-01T00:04:16;21.40;;;5.87;;
61150;SDS011;47029;50.994;2.876;2023-02-01T00:06:42;23.67;;;6.85;;
61150;SDS011;47029;50.994;2.876;2023-02-01T00:09:10;17.92;;;5.97;;
61150;SDS011;47029;50.994;2.876;2023-02-01T00:11:35;19.10;;;6.82;;
61150;SDS011;47029;50.994;2.876;2023-02-01T00:14:04;23.87;;;6.90;;
61150;SDS011;47029;50.994;2.876;2023-02-01T00:16:30;20.60;;;5.75;;
61150;SDS011;47029;50.994;2.876;2023-02-01T00:19:00;17.12;;;5.97;;
61150;SDS011;47029;50.994;2.876;2023-02-01T00:21:31;18.40;;;5.82;;
61150;SDS011;47029;50.994;2.876;2023-02-01T00:23:57;21.37;;;5.50;;
61150;SDS011;47029;50.994;2.876;2023-02-01T00:28:55;20.37;;;5.45;;
61150;SDS011;47029;50.994;2.876;2023-02-01T00:31:21;17.02;;;5.12;;
61150;SDS011;47029;50.994;2.876;2023-02-01T00:33:47;16.35;;;5.78;;
61150;SDS011;47029;50.994;2.876;2023-02-01T00:36:14;14.85;;;4.95;;
61150;SDS011;47029;50.994;2.876;2023-02-01T00:38:40;17.77;;;6.10;;
61150;SDS011;47029;50.994;2.876;2023-02-01T00:41:07;15.65;;;4.50;;
61150;SDS011;47029;50.994;2.876;2023-02-01T00:43:36;18.95;;;5.57;;
61150;SDS011;47029;50.994;2.876;2023-02-01T00:46:02;17.15;;;4.97;;
61150;SDS011;47029;50.994;2.876;2023-02-01T00:48:30;19.00;;;4.95;;
61150;SDS011;47029;50.994;2.876;2023-02-01T00:51:00;15.90;;;5.40;;
61150;SDS011;47029;50.994;2.876;2023-02-01T00:53:27;16.55;;;5.10;;
61150;SDS011;47029;50.994;2.876;2023-02-01T00:55:53;13.07;;;5.40;;
61150;SDS011;47029;50.994;2.876;2023-02-01T00:58:22;16.42;;;5.20;;
61150;SDS011;47029;50.994;2.876;2023-02-01T01:00:56;21.30;;;6.15;;
61150;SDS011;47029;50.994;2.876;2023-02-01T01:03:44;23.80;;;4.95;;
61150;SDS011;47029;50.994;2.876;2023-02-01T01:06:13;18.90;;;5.50;;
61150;SDS011;47029;50.994;2.876;2023-02-01T01:08:40;15.88;;;4.85;;
61150;SDS011;47029;50.994;2.876;2023-02-01T01:11:11;17.23;;;4.82;;
61150;SDS011;47029;50.994;2.876;2023-02-01T01:13:46;17.37;;;5.10;;
61150;SDS011;47029;50.994;2.876;2023-02-01T01:16:12;16.90;;;4.70;;
61150;SDS011;47029;50.994;2.876;2023-02-01T01:18:39;36.05;;;5.60;;
61150;SDS011;47029;50.994;2.876;2023-02-01T01:21:05;21.73;;;5.78;;
61150;SDS011;47029;50.994;2.876;2023-02-01T01:23:32;16.15;;;5.07;;
61150;SDS011;47029;50.994;2.876;2023-02-01T01:26:00;15.98;;;4.60;;
61150;SDS011;47029;50.994;2.876;2023-02-01T01:28:25;17.48;;;4.47;;
61150;SDS011;47029;50.994;2.876;2023-02-01T01:30:51;16.15;;;4.93;;
61150;SDS011;47029;50.994;2.876;2023-02-01T01:33:17;16.08;;;4.12;;
61150;SDS011;47029;50.994;2.876;2023-02-01T01:35:43;15.90;;;4.43;;
61150;SDS011;47029;50.994;2.876;2023-02-01T01:38:09;21.20;;;4.80;;
61150;SDS011;47029;50.994;2.876;2023-02-01T01:40:36;17.60;;;5.37;;
61150;SDS011;47029;50.994;2.876;2023-02-01T01:43:02;15.40;;;5.05;;
61150;SDS011;47029;50.994;2.876;2023-02-01T01:45:33;20.27;;;4.87;;
61150;SDS011;47029;50.994;2.876;2023-02-01T01:48:07;19.00;;;5.60;;
61150;SDS011;47029;50.994;2.876;2023-02-01T01:50:35;18.65;;;4.60;;
61150;SDS011;47029;50.994;2.876;2023-02-01T01:53:16;15.57;;;5.90;;
61150;SDS011;47029;50.994;2.876;2023-02-01T01:55:50;22.90;;;5.57;;
61150;SDS011;47029;50.994;2.876;2023-02-01T01:58:21;19.15;;;5.37;;
61150;SDS011;47029;50.994;2.876;2023-02-01T02:00:50;17.52;;;5.03;;
61150;SDS011;47029;50.994;2.876;2023-02-01T02:08:57;22.17;;;4.53;;
61150;SDS011;47029;50.994;2.876;2023-02-01T02:11:22;16.92;;;5.37;;
61150;SDS011;47029;50.994;2.876;2023-02-01T02:13:49;17.12;;;5.10;;
61150;SDS011;47029;50.994;2.876;2023-02-01T02:16:26;17.30;;;4.37;;
61150;SDS011;47029;50.994;2.876;2023-02-01T02:27:04;16.25;;;5.03;;
61150;SDS011;47029;50.994;2.876;2023-02-01T02:38:25;19.30;;;5.15;;
61150;SDS011;47029;50.994;2.876;2023-02-01T02:42:10;19.23;;;4.75;;
61150;SDS011;47029;50.994;2.876;2023-02-01T02:47:27;18.02;;;4.50;;
61150;SDS011;47029;50.994;2.876;2023-02-01T02:53:05;14.63;;;4.82;;
61150;SDS011;47029;50.994;2.876;2023-02-01T02:58:42;17.65;;;4.75;;
61150;SDS011;47029;50.994;2.876;2023-02-01T03:01:29;16.55;;;4.53;;
61150;SDS011;47029;50.994;2.876;2023-02-01T03:04:15;20.40;;;5.28;;
61150;SDS011;47029;50.994;2.876;2023-02-01T03:06:43;16.83;;;4.78;;
61150;SDS011;47029;50.994;2.876;2023-02-01T03:09:13;21.55;;;5.00;;
61150;SDS011;47029;50.994;2.876;2023-02-01T03:11:47;15.90;;;4.35;;
61150;SDS011;47029;50.994;2.876;2023-02-01T03:14:36;19.73;;;5.25;;
61150;SDS011;47029;50.994;2.876;2023-02-01T03:17:11;17.85;;;5.15;;
61150;SDS011;47029;50.994;2.876;2023-02-01T03:19:40;22.37;;;5.18;;
61150;SDS011;47029;50.994;2.876;2023-02-01T03:22:14;15.23;;;4.90;;
61150;SDS011;47029;50.994;2.876;2023-02-01T03:24:52;17.27;;;4.72;;
61150;SDS011;47029;50.994;2.876;2023-02-01T03:27:24;18.73;;;5.03;;
61150;SDS011;47029;50.994;2.876;2023-02-01T03:32:55;17.95;;;5.53;;
61150;SDS011;47029;50.994;2.876;2023-02-01T03:35:30;16.92;;;4.35;;
61150;SDS011;47029;50.994;2.876;2023-02-01T03:38:17;18.90;;;4.60;;
61150;SDS011;47029;50.994;2.876;2023-02-01T03:41:08;19.85;;;4.60;;
61150;SDS011;47029;50.994;2.876;2023-02-01T03:44:00;15.88;;;4.95;;
61150;SDS011;47029;50.994;2.876;2023-02-01T03:46:32;20.50;;;5.00;;
61150;SDS011;47029;50.994;2.876;2023-02-01T03:49:03;19.37;;;4.47;;
61150;SDS011;47029;50.994;2.876;2023-02-01T03:51:33;17.27;;;4.50;;
61150;SDS011;47029;50.994;2.876;2023-02-01T03:54:01;16.05;;;4.70;;
61150;SDS011;47029;50.994;2.876;2023-02-01T03:56:29;15.05;;;4.75;;
61150;SDS011;47029;50.994;2.876;2023-02-01T03:58:58;19.80;;;5.15;;
61150;SDS011;47029;50.994;2.876;2023-02-01T04:01:28;20.98;;;4.78;;
61150;SDS011;47029;50.994;2.876;2023-02-01T04:03:57;16.73;;;4.28;;
61150;SDS011;47029;50.994;2.876;2023-02-01T04:06:26;18.50;;;4.57;;
61150;SDS011;47029;50.994;2.876;2023-02-01T04:08:52;20.05;;;4.68;;
61150;SDS011;47029;50.994;2.876;2023-02-01T04:11:18;17.70;;;4.30;;
61150;SDS011;47029;50.994;2.876;2023-02-01T04:13:43;21.75;;;4.75;;
61150;SDS011;47029;50.994;2.876;2023-02-01T04:16:09;15.88;;;4.90;;
61150;SDS011;47029;50.994;2.876;2023-02-01T04:18:35;17.65;;;4.28;;
61150;SDS011;47029;50.994;2.876;2023-02-01T04:21:02;16.67;;;4.50;;
61150;SDS011;47029;50.994;2.876;2023-02-01T04:23:28;20.67;;;5.37;;
61150;SDS011;47029;50.994;2.876;2023-02-01T04:25:58;19.23;;;4.72;;
61150;SDS011;47029;50.994;2.876;2023-02-01T04:28:25;16.12;;;4.20;;
61150;SDS011;47029;50.994;2.876;2023-02-01T04:30:51;18.95;;;4.85;;
61150;SDS011;47029;50.994;2.876;2023-02-01T04:33:17;17.02;;;4.22;;
61150;SDS011;47029;50.994;2.876;2023-02-01T04:35:42;18.12;;;5.30;;
61150;SDS011;47029;50.994;2.876;2023-02-01T04:38:10;18.58;;;4.62;;
61150;SDS011;47029;50.994;2.876;2023-02-01T04:40:36;18.48;;;4.65;;
61150;SDS011;47029;50.994;2.876;2023-02-01T04:43:04;20.17;;;5.05;;
61150;SDS011;47029;50.994;2.876;2023-02-01T04:45:30;18.42;;;5.22;;
61150;SDS011;47029;50.994;2.876;2023-02-01T04:47:58;18.42;;;4.87;;
61150;SDS011;47029;50.994;2.876;2023-02-01T04:50:26;21.77;;;5.10;;
61150;SDS011;47029;50.994;2.876;2023-02-01T04:52:54;16.83;;;5.35;;
61150;SDS011;47029;50.994;2.876;2023-02-01T04:55:19;19.67;;;5.05;;
61150;SDS011;47029;50.994;2.876;2023-02-01T04:57:45;17.10;;;4.60;;
61150;SDS011;47029;50.994;2.876;2023-02-01T05:00:11;15.23;;;4.37;;
61150;SDS011;47029;50.994;2.876;2023-02-01T05:02:38;16.02;;;5.47;;
61150;SDS011;47029;50.994;2.876;2023-02-01T05:05:04;17.10;;;4.75;;
61150;SDS011;47029;50.994;2.876;2023-02-01T05:07:30;21.83;;;5.65;;
61150;SDS011;47029;50.994;2.876;2023-02-01T05:09:56;19.87;;;4.75;;
61150;SDS011;47029;50.994;2.876;2023-02-01T05:12:24;20.40;;;4.25;;
61150;SDS011;47029;50.994;2.876;2023-02-01T05:15:08;22.30;;;5.95;;
61150;SDS011;47029;50.994;2.876;2023-02-01T05:17:34;19.23;;;5.35;;
61150;SDS011;47029;50.994;2.876;2023-02-01T05:19:59;19.15;;;4.55;;
61150;SDS011;47029;50.994;2.876;2023-02-01T05:22:25;15.15;;;4.28;;
61150;SDS011;47029;50.994;2.876;2023-02-01T05:24:51;16.60;;;4.62;;
61150;SDS011;47029;50.994;2.876;2023-02-01T05:27:17;25.37;;;5.18;;
61150;SDS011;47029;50.994;2.876;2023-02-01T05:29:42;17.30;;;4.97;;
61150;SDS011;47029;50.994;2.876;2023-02-01T05:32:10;23.98;;;4.60;;
61150;SDS011;47029;50.994;2.876;2023-02-01T05:34:36;16.60;;;4.28;;
61150;SDS011;47029;50.994;2.876;2023-02-01T05:37:02;18.98;;;5.43;;
61150;SDS011;47029;50.994;2.876;2023-02-01T05:39:28;21.80;;;5.28;;
61150;SDS011;47029;50.994;2.876;2023-02-01T05:41:54;17.92;;;5.40;;
61150;SDS011;47029;50.994;2.876;2023-02-01T05:44:19;20.42;;;5.85;;
61150;SDS011;47029;50.994;2.876;2023-02-01T05:46:45;18.35;;;4.72;;
61150;SDS011;47029;50.994;2.876;2023-02-01T05:49:11;22.05;;;4.80;;
61150;SDS011;47029;50.994;2.876;2023-02-01T05:51:36;15.32;;;4.80;;
61150;SDS011;47029;50.994;2.876;2023-02-01T05:54:05;15.82;;;4.75;;
61150;SDS011;47029;50.994;2.876;2023-02-01T05:56:30;16.12;;;4.60;;
61150;SDS011;47029;50.994;2.876;2023-02-01T05:58:56;19.30;;;4.93;;
61150;SDS011;47029;50.994;2.876;2023-02-01T06:01:22;21.35;;;4.68;;
61150;SDS011;47029;50.994;2.876;2023-02-01T06:03:47;18.30;;;5.03;;
61150;SDS011;47029;50.994;2.876;2023-02-01T06:06:13;24.48;;;4.53;;
61150;SDS011;47029;50.994;2.876;2023-02-01T06:08:39;25.77;;;5.60;;
61150;SDS011;47029;50.994;2.876;2023-02-01T06:11:05;26.85;;;5.95;;
61150;SDS011;47029;50.994;2.876;2023-02-01T06:13:31;19.40;;;4.72;;
61150;SDS011;47029;50.994;2.876;2023-02-01T06:15:59;22.87;;;5.28;;
61150;SDS011;47029;50.994;2.876;2023-02-01T06:18:26;18.02;;;4.75;;
61150;SDS011;47029;50.994;2.876;2023-02-01T06:20:53;18.80;;;4.40;;
61150;SDS011;47029;50.994;2.876;2023-02-01T06:23:19;14.07;;;5.12;;
61150;SDS011;47029;50.994;2.876;2023-02-01T06:25:48;15.80;;;4.82;;
61150;SDS011;47029;50.994;2.876;2023-02-01T06:28:18;16.52;;;5.05;;
61150;SDS011;47029;50.994;2.876;2023-02-01T06:30:44;16.90;;;5.10;;
61150;SDS011;47029;50.994;2.876;2023-02-01T06:33:15;14.90;;;4.60;;
61150;SDS011;47029;50.994;2.876;2023-02-01T06:35:44;19.20;;;4.65;;
61150;SDS011;47029;50.994;2.876;2023-02-01T06:38:13;15.10;;;4.43;;
61150;SDS011;47029;50.994;2.876;2023-02-01T06:40:39;20.00;;;4.75;;
61150;SDS011;47029;50.994;2.876;2023-02-01T06:43:06;14.25;;;4.12;;
61150;SDS011;47029;50.994;2.876;2023-02-01T06:45:31;15.10;;;3.90;;
61150;SDS011;47029;50.994;2.876;2023-02-01T06:47:58;19.33;;;4.65;;
61150;SDS011;47029;50.994;2.876;2023-02-01T06:50:26;16.90;;;4.55;;
61150;SDS011;47029;50.994;2.876;2023-02-01T06:52:52;17.62;;;4.30;;
61150;SDS011;47029;50.994;2.876;2023-02-01T06:55:20;18.95;;;5.15;;
61150;SDS011;47029;50.994;2.876;2023-02-01T06:57:46;17.08;;;4.70;;
61150;SDS011;47029;50.994;2.876;2023-02-01T07:00:17;14.57;;;4.10;;
61150;SDS011;47029;50.994;2.876;2023-02-01T07:02:43;17.33;;;4.20;;
61150;SDS011;47029;50.994;2.876;2023-02-01T07:05:09;17.08;;;4.97;;
61150;SDS011;47029;50.994;2.876;2023-02-01T07:07:35;18.67;;;4.50;;
61150;SDS011;47029;50.994;2.876;2023-02-01T07:10:00;18.50;;;4.57;;
61150;SDS011;47029;50.994;2.876;2023-02-01T07:12:26;20.58;;;4.82;;
61150;SDS011;47029;50.994;2.876;2023-02-01T07:14:52;16.33;;;4.50;;
61150;SDS011;47029;50.994;2.876;2023-02-01T07:17:17;17.60;;;4.50;;
61150;SDS011;47029;50.994;2.876;2023-02-01T07:19:43;20.10;;;4.62;;
61150;SDS011;47029;50.994;2.876;2023-02-01T07:22:09;19.67;;;5.25;;
61150;SDS011;47029;50.994;2.876;2023-02-01T07:24:37;16.67;;;4.68;;
61150;SDS011;47029;50.994;2.876;2023-02-01T07:27:03;19.45;;;5.03;;
61150;SDS011;47029;50.994;2.876;2023-02-01T07:29:28;20.35;;;4.22;;
61150;SDS011;47029;50.994;2.876;2023-02-01T07:31:54;16.73;;;4.57;;
61150;SDS011;47029;50.994;2.876;2023-02-01T07:34:20;17.27;;;4.53;;
61150;SDS011;47029;50.994;2.876;2023-02-01T07:36:46;17.85;;;4.62;;
61150;SDS011;47029;50.994;2.876;2023-02-01T07:39:11;15.20;;;4.20;;
61150;SDS011;47029;50.994;2.876;2023-02-01T07:41:37;22.08;;;4.85;;
61150;SDS011;47029;50.994;2.876;2023-02-01T07:44:03;14.57;;;4.40;;
61150;SDS011;47029;50.994;2.876;2023-02-01T07:46:29;16.85;;;4.25;;
61150;SDS011;47029;50.994;2.876;2023-02-01T07:48:54;22.55;;;4.62;;
61150;SDS011;47029;50.994;2.876;2023-02-01T07:51:20;12.35;;;4.00;;
61150;SDS011;47029;50.994;2.876;2023-02-01T07:53:46;17.48;;;4.18;;
61150;SDS011;47029;50.994;2.876;2023-02-01T07:56:13;12.75;;;3.80;;
61150;SDS011;47029;50.994;2.876;2023-02-01T07:58:48;17.02;;;3.83;;
61150;SDS011;47029;50.994;2.876;2023-02-01T08:01:17;18.70;;;4.60;;
61150;SDS011;47029;50.994;2.876;2023-02-01T08:03:50;14.00;;;4.28;;
61150;SDS011;47029;50.994;2.876;2023-02-01T08:06:18;14.73;;;4.72;;
61150;SDS011;47029;50.994;2.876;2023-02-01T08:08:45;15.98;;;4.32;;
61150;SDS011;47029;50.994;2.876;2023-02-01T08:11:12;15.98;;;4.43;;
61150;SDS011;47029;50.994;2.876;2023-02-01T08:13:38;17.73;;;4.95;;
61150;SDS011;47029;50.994;2.876;2023-02-01T08:16:05;15.02;;;4.43;;
61150;SDS011;47029;50.994;2.876;2023-02-01T08:18:33;15.98;;;4.93;;
61150;SDS011;47029;50.994;2.876;2023-02-01T08:21:07;17.70;;;4.07;;
61150;SDS011;47029;50.994;2.876;2023-02-01T08:23:38;20.92;;;4.72;;
61150;SDS011;47029;50.994;2.876;2023-02-01T08:26:08;13.45;;;4.07;;
61150;SDS011;47029;50.994;2.876;2023-02-01T08:28:36;15.35;;;3.78;;
61150;SDS011;47029;50.994;2.876;2023-02-01T08:31:06;19.77;;;4.18;;
61150;SDS011;47029;50.994;2.876;2023-02-01T08:33:33;16.05;;;4.20;;
61150;SDS011;47029;50.994;2.876;2023-02-01T08:36:01;16.90;;;4.40;;
61150;SDS011;47029;50.994;2.876;2023-02-01T08:38:27;17.80;;;4.97;;
61150;SDS011;47029;50.994;2.876;2023-02-01T08:40:53;20.25;;;4.25;;
61150;SDS011;47029;50.994;2.876;2023-02-01T08:43:21;17.52;;;4.28;;
61150;SDS011;47029;50.994;2.876;2023-02-01T08:45:48;19.33;;;3.90;;
61150;SDS011;47029;50.994;2.876;2023-02-01T08:48:15;15.95;;;3.97;;
61150;SDS011;47029;50.994;2.876;2023-02-01T08:50:41;15.18;;;3.72;;
61150;SDS011;47029;50.994;2.876;2023-02-01T08:53:06;17.48;;;4.43;;
61150;SDS011;47029;50.994;2.876;2023-02-01T08:55:32;15.13;;;4.05;;
61150;SDS011;47029;50.994;2.876;2023-02-01T08:57:58;18.80;;;5.07;;
61150;SDS011;47029;50.994;2.876;2023-02-01T09:00:23;15.45;;;4.32;;
61150;SDS011;47029;50.994;2.876;2023-02-01T09:02:51;19.62;;;4.28;;
61150;SDS011;47029;50.994;2.876;2023-02-01T09:05:17;14.07;;;3.90;;
61150;SDS011;47029;50.994;2.876;2023-02-01T09:07:47;14.73;;;3.97;;
61150;SDS011;47029;50.994;2.876;2023-02-01T09:10:12;11.82;;;3.70;;
61150;SDS011;47029;50.994;2.876;2023-02-01T09:12:38;14.15;;;3.60;;
61150;SDS011;47029;50.994;2.876;2023-02-01T09:15:04;17.15;;;4.30;;
61150;SDS011;47029;50.994;2.876;2023-02-01T09:17:32;14.52;;;4.10;;
61150;SDS011;47029;50.994;2.876;2023-02-01T09:20:00;17.30;;;4.15;;
61150;SDS011;47029;50.994;2.876;2023-02-01T09:22:26;12.80;;;3.85;;
61150;SDS011;47029;50.994;2.876;2023-02-01T09:24:52;16.37;;;4.40;;
61150;SDS011;47029;50.994;2.876;2023-02-01T09:27:18;12.80;;;3.90;;
61150;SDS011;47029;50.994;2.876;2023-02-01T09:29:46;13.80;;;4.00;;
61150;SDS011;47029;50.994;2.876;2023-02-01T09:32:17;16.55;;;4.50;;
61150;SDS011;47029;50.994;2.876;2023-02-01T09:34:47;12.32;;;3.60;;
61150;SDS011;47029;50.994;2.876;2023-02-01T09:37:13;12.20;;;3.92;;
61150;SDS011;47029;50.994;2.876;2023-02-01T09:39:39;17.70;;;3.95;;
61150;SDS011;47029;50.994;2.876;2023-02-01T09:42:27;15.98;;;4.03;;
61150;SDS011;47029;50.994;2.876;2023-02-01T09:45:17;12.93;;;3.75;;
61150;SDS011;47029;50.994;2.876;2023-02-01T09:47:55;14.80;;;3.50;;
61150;SDS011;47029;50.994;2.876;2023-02-01T09:50:34;13.10;;;3.35;;
61150;SDS011;47029;50.994;2.876;2023-02-01T09:55:39;18.48;;;4.20;;
61150;SDS011;47029;50.994;2.876;2023-02-01T09:58:13;12.68;;;3.45;;
61150;SDS011;47029;50.994;2.876;2023-02-01T10:00:39;15.70;;;4.57;;
61150;SDS011;47029;50.994;2.876;2023-02-01T10:03:09;14.75;;;3.90;;
61150;SDS011;47029;50.994;2.876;2023-02-01T10:05:45;12.80;;;4.50;;
61150;SDS011;47029;50.994;2.876;2023-02-01T10:08:49;11.45;;;3.60;;
61150;SDS011;47029;50.994;2.876;2023-02-01T10:11:28;14.93;;;4.22;;
61150;SDS011;47029;50.994;2.876;2023-02-01T10:20:10;12.75;;;3.40;;
61150;SDS011;47029;50.994;2.876;2023-02-01T10:22:42;13.13;;;3.92;;
61150;SDS011;47029;50.994;2.876;2023-02-01T10:25:31;14.13;;;3.28;;
61150;SDS011;47029;50.994;2.876;2023-02-01T10:28:08;17.08;;;3.72;;
61150;SDS011;47029;50.994;2.876;2023-02-01T10:30:45;11.85;;;3.70;;
61150;SDS011;47029;50.994;2.876;2023-02-01T10:35:58;12.32;;;3.03;;
61150;SDS011;47029;50.994;2.876;2023-02-01T10:38:34;14.65;;;3.55;;
61150;SDS011;47029;50.994;2.876;2023-02-01T10:41:07;13.88;;;4.30;;
61150;SDS011;47029;50.994;2.876;2023-02-01T10:43:46;11.45;;;3.37;;
61150;SDS011;47029;50.994;2.876;2023-02-01T10:46:18;15.38;;;3.40;;
61150;SDS011;47029;50.994;2.876;2023-02-01T10:48:45;14.23;;;3.47;;
61150;SDS011;47029;50.994;2.876;2023-02-01T10:51:14;14.93;;;3.62;;
61150;SDS011;47029;50.994;2.876;2023-02-01T10:56:24;14.77;;;3.65;;
61150;SDS011;47029;50.994;2.876;2023-02-01T10:58:52;12.20;;;3.17;;
61150;SDS011;47029;50.994;2.876;2023-02-01T11:02:29;20.73;;;4.28;;
61150;SDS011;47029;50.994;2.876;2023-02-01T11:04:28;13.18;;;3.33;;
61150;SDS011;47029;50.994;2.876;2023-02-01T11:09:38;13.68;;;3.40;;
61150;SDS011;47029;50.994;2.876;2023-02-01T11:12:10;12.80;;;3.37;;
61150;SDS011;47029;50.994;2.876;2023-02-01T11:14:54;13.57;;;3.53;;
61150;SDS011;47029;50.994;2.876;2023-02-01T11:17:26;9.90;;;2.95;;
61150;SDS011;47029;50.994;2.876;2023-02-01T11:19:58;12.98;;;3.65;;
61150;SDS011;47029;50.994;2.876;2023-02-01T11:22:26;14.02;;;4.10;;
61150;SDS011;47029;50.994;2.876;2023-02-01T11:24:53;11.95;;;3.58;;
61150;SDS011;47029;50.994;2.876;2023-02-01T11:27:20;16.02;;;3.87;;
61150;SDS011;47029;50.994;2.876;2023-02-01T11:29:52;15.05;;;3.37;;
61150;SDS011;47029;50.994;2.876;2023-02-01T11:32:22;17.40;;;3.85;;
61150;SDS011;47029;50.994;2.876;2023-02-01T11:35:13;15.65;;;3.47;;
61150;SDS011;47029;50.994;2.876;2023-02-01T11:37:41;11.77;;;2.90;;
61150;SDS011;47029;50.994;2.876;2023-02-01T11:45:54;12.52;;;3.17;;
61150;SDS011;47029;50.994;2.876;2023-02-01T11:48:21;9.23;;;2.90;;
61150;SDS011;47029;50.994;2.876;2023-02-01T11:53:40;11.68;;;3.08;;
61150;SDS011;47029;50.994;2.876;2023-02-01T11:56:54;12.23;;;3.37;;
61150;SDS011;47029;50.994;2.876;2023-02-01T12:05:25;11.27;;;2.95;;
61150;SDS011;47029;50.994;2.876;2023-02-01T12:14:02;11.70;;;3.00;;
61150;SDS011;47029;50.994;2.876;2023-02-01T12:20:18;11.32;;;3.45;;
61150;SDS011;47029;50.994;2.876;2023-02-01T12:31:15;11.93;;;3.35;;
61150;SDS011;47029;50.994;2.876;2023-02-01T12:42:25;10.98;;;3.35;;
61150;SDS011;47029;50.994;2.876;2023-02-01T12:45:15;11.80;;;3.42;;
61150;SDS011;47029;50.994;2.876;2023-02-01T12:48:00;12.05;;;3.55;;
61150;SDS011;47029;50.994;2.876;2023-02-01T12:50:47;10.45;;;3.15;;
61150;SDS011;47029;50.994;2.876;2023-02-01T12:55:55;13.68;;;3.67;;
61150;SDS011;47029;50.994;2.876;2023-02-01T13:00:59;12.10;;;3.40;;
61150;SDS011;47029;50.994;2.876;2023-02-01T13:11:30;13.90;;;3.25;;
61150;SDS011;47029;50.994;2.876;2023-02-01T13:16:53;14.60;;;3.58;;
61150;SDS011;47029;50.994;2.876;2023-02-01T13:19:42;15.63;;;3.87;;
61150;SDS011;47029;50.994;2.876;2023-02-01T13:22:26;12.65;;;3.10;;
61150;SDS011;47029;50.994;2.876;2023-02-01T13:27:30;13.75;;;3.37;;
61150;SDS011;47029;50.994;2.876;2023-02-01T13:29:58;14.50;;;3.47;;
61150;SDS011;47029;50.994;2.876;2023-02-01T13:35:19;13.13;;;3.72;;
61150;SDS011;47029;50.994;2.876;2023-02-01T13:38:01;11.82;;;3.35;;
61150;SDS011;47029;50.994;2.876;2023-02-01T13:43:43;13.07;;;3.75;;
61150;SDS011;47029;50.994;2.876;2023-02-01T13:46:14;11.07;;;4.12;;
61150;SDS011;47029;50.994;2.876;2023-02-01T13:48:46;13.27;;;3.25;;
61150;SDS011;47029;50.994;2.876;2023-02-01T13:51:12;12.77;;;3.30;;
61150;SDS011;47029;50.994;2.876;2023-02-01T13:53:44;12.52;;;3.25;;
61150;SDS011;47029;50.994;2.876;2023-02-01T13:56:16;15.18;;;3.72;;
61150;SDS011;47029;50.994;2.876;2023-02-01T13:58:44;13.38;;;3.53;;
61150;SDS011;47029;50.994;2.876;2023-02-01T14:03:48;12.60;;;3.40;;
61150;SDS011;47029;50.994;2.876;2023-02-01T14:11:43;11.23;;;4.07;;
61150;SDS011;47029;50.994;2.876;2023-02-01T14:14:57;11.35;;;3.67;;
61150;SDS011;47029;50.994;2.876;2023-02-01T14:19:26;12.88;;;3.83;;
61150;SDS011;47029;50.994;2.876;2023-02-01T14:22:42;10.65;;;3.40;;
61150;SDS011;47029;50.994;2.876;2023-02-01T14:24:49;11.35;;;3.37;;
61150;SDS011;47029;50.994;2.876;2023-02-01T14:27:29;13.25;;;3.22;;
61150;SDS011;47029;50.994;2.876;2023-02-01T14:30:00;13.00;;;3.25;;
61150;SDS011;47029;50.994;2.876;2023-02-01T14:32:36;13.43;;;3.60;;
61150;SDS011;47029;50.994;2.876;2023-02-01T14:35:06;17.60;;;4.40;;
61150;SDS011;47029;50.994;2.876;2023-02-01T14:37:53;14.13;;;3.83;;
61150;SDS011;47029;50.994;2.876;2023-02-01T14:40:26;12.43;;;3.80;;
61150;SDS011;47029;50.994;2.876;2023-02-01T14:42:56;14.30;;;4.78;;
61150;SDS011;47029;50.994;2.876;2023-02-01T15:00:53;14.40;;;3.95;;
61150;SDS011;47029;50.994;2.876;2023-02-01T15:09:42;12.57;;;3.65;;
61150;SDS011;47029;50.994;2.876;2023-02-01T15:14:19;16.08;;;4.10;;
61150;SDS011;47029;50.994;2.876;2023-02-01T15:16:45;13.50;;;3.92;;
61150;SDS011;47029;50.994;2.876;2023-02-01T15:19:18;19.10;;;4.75;;
61150;SDS011;47029;50.994;2.876;2023-02-01T15:21:50;17.48;;;4.03;;
61150;SDS011;47029;50.994;2.876;2023-02-01T15:24:22;17.30;;;4.60;;
61150;SDS011;47029;50.994;2.876;2023-02-01T15:26:52;19.67;;;4.45;;
61150;SDS011;47029;50.994;2.876;2023-02-01T15:29:20;20.60;;;5.18;;
61150;SDS011;47029;50.994;2.876;2023-02-01T15:31:51;17.25;;;5.45;;
61150;SDS011;47029;50.994;2.876;2023-02-01T15:34:20;19.87;;;4.57;;
61150;SDS011;47029;50.994;2.876;2023-02-01T15:36:46;18.27;;;5.55;;
61150;SDS011;47029;50.994;2.876;2023-02-01T15:41:48;13.27;;;4.90;;
61150;SDS011;47029;50.994;2.876;2023-02-01T15:47:24;22.08;;;4.82;;
61150;SDS011;47029;50.994;2.876;2023-02-01T15:49:53;15.60;;;5.20;;
61150;SDS011;47029;50.994;2.876;2023-02-01T15:54:47;14.73;;;4.85;;
61150;SDS011;47029;50.994;2.876;2023-02-01T15:57:22;17.10;;;5.70;;
61150;SDS011;47029;50.994;2.876;2023-02-01T15:59:57;15.20;;;4.62;;
61150;SDS011;47029;50.994;2.876;2023-02-01T16:02:27;17.67;;;4.35;;
61150;SDS011;47029;50.994;2.876;2023-02-01T16:08:14;26.85;;;7.47;;
61150;SDS011;47029;50.994;2.876;2023-02-01T16:10:46;25.58;;;7.18;;
61150;SDS011;47029;50.994;2.876;2023-02-01T16:13:13;22.92;;;5.72;;
61150;SDS011;47029;50.994;2.876;2023-02-01T16:15:40;23.10;;;5.97;;
61150;SDS011;47029;50.994;2.876;2023-02-01T16:18:06;20.00;;;5.57;;
61150;SDS011;47029;50.994;2.876;2023-02-01T16:20:33;18.17;;;5.68;;
61150;SDS011;47029;50.994;2.876;2023-02-01T16:23:02;14.05;;;4.50;;
61150;SDS011;47029;50.994;2.876;2023-02-01T16:25:28;23.65;;;6.03;;
61150;SDS011;47029;50.994;2.876;2023-02-01T16:27:54;15.88;;;5.30;;
61150;SDS011;47029;50.994;2.876;2023-02-01T16:30:20;21.75;;;5.00;;
61150;SDS011;47029;50.994;2.876;2023-02-01T16:32:58;22.45;;;5.07;;
61150;SDS011;47029;50.994;2.876;2023-02-01T16:35:31;19.40;;;5.53;;
61150;SDS011;47029;50.994;2.876;2023-02-01T16:38:07;19.25;;;5.12;;
61150;SDS011;47029;50.994;2.876;2023-02-01T16:40:39;25.75;;;5.70;;
61150;SDS011;47029;50.994;2.876;2023-02-01T16:43:16;20.70;;;6.32;;
61150;SDS011;47029;50.994;2.876;2023-02-01T16:45:44;18.73;;;5.97;;
61150;SDS011;47029;50.994;2.876;2023-02-01T16:50:42;22.58;;;5.57;;
61150;SDS011;47029;50.994;2.876;2023-02-01T16:53:08;16.55;;;4.60;;
61150;SDS011;47029;50.994;2.876;2023-02-01T16:55:39;19.25;;;5.07;;
61150;SDS011;47029;50.994;2.876;2023-02-01T16:58:07;19.30;;;5.07;;
61150;SDS011;47029;50.994;2.876;2023-02-01T17:00:35;20.48;;;5.85;;
61150;SDS011;47029;50.994;2.876;2023-02-01T17:03:06;14.70;;;5.78;;
61150;SDS011;47029;50.994;2.876;2023-02-01T17:05:32;21.20;;;5.93;;
61150;SDS011;47029;50.994;2.876;2023-02-01T17:08:00;22.55;;;5.78;;
61150;SDS011;47029;50.994;2.876;2023-02-01T17:10:29;16.12;;;4.93;;
61150;SDS011;47029;50.994;2.876;2023-02-01T17:12:55;16.33;;;4.70;;
61150;SDS011;47029;50.994;2.876;2023-02-01T17:15:23;15.73;;;4.60;;
61150;SDS011;47029;50.994;2.876;2023-02-01T17:17:53;20.90;;;5.90;;
61150;SDS011;47029;50.994;2.876;2023-02-01T17:20:22;19.85;;;5.30;;
61150;SDS011;47029;50.994;2.876;2023-02-01T17:22:50;16.02;;;4.93;;
61150;SDS011;47029;50.994;2.876;2023-02-01T17:25:17;17.52;;;5.30;;
61150;SDS011;47029;50.994;2.876;2023-02-01T17:27:44;25.85;;;5.35;;
61150;SDS011;47029;50.994;2.876;2023-02-01T17:30:11;19.35;;;5.47;;
61150;SDS011;47029;50.994;2.876;2023-02-01T17:32:38;16.70;;;5.57;;
61150;SDS011;47029;50.994;2.876;2023-02-01T17:35:18;18.33;;;5.20;;
61150;SDS011;47029;50.994;2.876;2023-02-01T17:37:46;18.08;;;5.20;;
61150;SDS011;47029;50.994;2.876;2023-02-01T17:40:12;25.02;;;5.95;;
61150;SDS011;47029;50.994;2.876;2023-02-01T17:42:40;16.50;;;4.80;;